sensor_id;sensor_type;location;lat;lon;timestamp;P1;durP1;ratioP1;P2;durP2;ratioP2
72813;SDS011;60945;48.516;-2.768;2022-09-21T00:03:57;4.30;;;2.85;;
72813;SDS011;60945;48.516;-2.768;2022-09-21T00:06:25;5.88;;;3.03;;
72813;SDS011;60945;48.516;-2.768;2022-09-21T00:08:52;5.50;;;3.22;;
72813;SDS011;60945;48.516;-2.768;2022-09-21T00:11:20;6.05;;;3.35;;
72813;SDS011;60945;48.516;-2.768;2022-09-21T00:13:54;7.75;;;3.33;;
72813;SDS011;60945;48.516;-2.768;2022-09-21T00:16:22;4.55;;;3.35;;
72813;SDS011;60945;48.516;-2.768;2022-09-21T00:18:48;5.50;;;3.38;;
72813;SDS011;60945;48.516;-2.768;2022-09-21T00:21:14;4.20;;;3.13;;
72813;SDS011;60945;48.516;-2.768;2022-09-21T00:23:41;7.28;;;3.25;;
72813;SDS011;60945;48.516;-2.768;2022-09-21T00:26:12;5.55;;;3.33;;
72813;SDS011;60945;48.516;-2.768;2022-09-21T00:28:39;5.90;;;3.40;;
72813;SDS011;60945;48.516;-2.768;2022-09-21T00:31:06;5.13;;;3.00;;
72813;SDS011;60945;48.516;-2.768;2022-09-21T00:33:35;4.97;;;2.80;;
72813;SDS011;60945;48.516;-2.768;2022-09-21T00:36:10;5.63;;;3.55;;
72813;SDS011;60945;48.516;-2.768;2022-09-21T00:38:38;4.78;;;3.15;;
72813;SDS011;60945;48.516;-2.768;2022-09-21T00:41:05;5.00;;;3.58;;
72813;SDS011;60945;48.516;-2.768;2022-09-21T00:43:35;4.63;;;3.40;;
72813;SDS011;60945;48.516;-2.768;2022-09-21T00:46:04;4.60;;;3.22;;
72813;SDS011;60945;48.516;-2.768;2022-09-21T00:48:36;4.07;;;3.10;;
72813;SDS011;60945;48.516;-2.768;2022-09-21T00:51:03;7.50;;;3.70;;
72813;SDS011;60945;48.516;-2.768;2022-09-21T00:53:31;5.82;;;3.13;;
72813;SDS011;60945;48.516;-2.768;2022-09-21T00:55:57;6.20;;;3.58;;
72813;SDS011;60945;48.516;-2.768;2022-09-21T00:58:30;4.55;;;3.17;;
72813;SDS011;60945;48.516;-2.768;2022-09-21T01:01:04;5.70;;;3.70;;
72813;SDS011;60945;48.516;-2.768;2022-09-21T01:03:30;5.90;;;3.45;;
72813;SDS011;60945;48.516;-2.768;2022-09-21T01:05:57;5.75;;;2.90;;
72813;SDS011;60945;48.516;-2.768;2022-09-21T01:08:23;7.32;;;3.60;;
72813;SDS011;60945;48.516;-2.768;2022-09-21T01:10:57;5.43;;;3.28;;
72813;SDS011;60945;48.516;-2.768;2022-09-21T01:22:47;4.80;;;3.08;;
72813;SDS011;60945;48.516;-2.768;2022-09-21T01:30:21;6.95;;;3.97;;
72813;SDS011;60945;48.516;-2.768;2022-09-21T01:32:51;5.90;;;3.50;;
72813;SDS011;60945;48.516;-2.768;2022-09-21T01:35:20;5.07;;;3.25;;
72813;SDS011;60945;48.516;-2.768;2022-09-21T01:37:54;4.88;;;3.10;;
72813;SDS011;60945;48.516;-2.768;2022-09-21T01:40:45;5.40;;;3.30;;
72813;SDS011;60945;48.516;-2.768;2022-09-21T01:43:22;8.73;;;3.60;;
72813;SDS011;60945;48.516;-2.768;2022-09-21T01:45:51;5.40;;;3.20;;
72813;SDS011;60945;48.516;-2.768;2022-09-21T01:48:20;5.80;;;3.20;;
72813;SDS011;60945;48.516;-2.768;2022-09-21T01:50:52;5.93;;;2.63;;
72813;SDS011;60945;48.516;-2.768;2022-09-21T01:53:24;4.55;;;2.67;;
72813;SDS011;60945;48.516;-2.768;2022-09-21T01:56:12;5.15;;;2.60;;
72813;SDS011;60945;48.516;-2.768;2022-09-21T02:01:25;4.28;;;2.80;;
72813;SDS011;60945;48.516;-2.768;2022-09-21T02:03:54;3.95;;;2.80;;
72813;SDS011;60945;48.516;-2.768;2022-09-21T02:06:25;4.70;;;3.03;;
72813;SDS011;60945;48.516;-2.768;2022-09-21T02:08:52;3.92;;;2.53;;
72813;SDS011;60945;48.516;-2.768;2022-09-21T02:11:18;4.30;;;2.90;;
72813;SDS011;60945;48.516;-2.768;2022-09-21T02:13:45;3.35;;;2.78;;
72813;SDS011;60945;48.516;-2.768;2022-09-21T02:19:11;3.97;;;2.85;;
72813;SDS011;60945;48.516;-2.768;2022-09-21T02:21:55;4.00;;;2.80;;
72813;SDS011;60945;48.516;-2.768;2022-09-21T02:24:43;4.68;;;2.92;;
72813;SDS011;60945;48.516;-2.768;2022-09-21T02:30:21;3.95;;;3.00;;
72813;SDS011;60945;48.516;-2.768;2022-09-21T02:35:49;5.25;;;3.42;;
72813;SDS011;60945;48.516;-2.768;2022-09-21T02:48:50;5.65;;;2.97;;
72813;SDS011;60945;48.516;-2.768;2022-09-21T02:51:20;4.13;;;3.00;;
72813;SDS011;60945;48.516;-2.768;2022-09-21T02:53:53;4.07;;;2.70;;
72813;SDS011;60945;48.516;-2.768;2022-09-21T02:56:20;3.97;;;2.83;;
72813;SDS011;60945;48.516;-2.768;2022-09-21T02:58:47;4.75;;;2.88;;
72813;SDS011;60945;48.516;-2.768;2022-09-21T03:01:16;5.28;;;3.10;;
72813;SDS011;60945;48.516;-2.768;2022-09-21T03:03:43;4.07;;;2.70;;
72813;SDS011;60945;48.516;-2.768;2022-09-21T03:06:08;4.53;;;2.88;;
72813;SDS011;60945;48.516;-2.768;2022-09-21T03:08:34;5.63;;;3.10;;
72813;SDS011;60945;48.516;-2.768;2022-09-21T03:11:00;4.13;;;2.95;;
72813;SDS011;60945;48.516;-2.768;2022-09-21T03:13:26;6.35;;;2.72;;
72813;SDS011;60945;48.516;-2.768;2022-09-21T03:16:02;3.80;;;2.88;;
72813;SDS011;60945;48.516;-2.768;2022-09-21T03:18:30;4.95;;;3.22;;
72813;SDS011;60945;48.516;-2.768;2022-09-21T03:20:56;4.47;;;2.70;;
72813;SDS011;60945;48.516;-2.768;2022-09-21T03:23:22;4.80;;;3.28;;
72813;SDS011;60945;48.516;-2.768;2022-09-21T03:25:48;3.97;;;2.90;;
72813;SDS011;60945;48.516;-2.768;2022-09-21T03:28:14;6.22;;;3.17;;
72813;SDS011;60945;48.516;-2.768;2022-09-21T03:30:40;4.18;;;2.63;;
72813;SDS011;60945;48.516;-2.768;2022-09-21T03:33:06;4.55;;;2.70;;
72813;SDS011;60945;48.516;-2.768;2022-09-21T03:35:32;4.07;;;2.83;;
72813;SDS011;60945;48.516;-2.768;2022-09-21T03:37:58;3.90;;;2.67;;
72813;SDS011;60945;48.516;-2.768;2022-09-21T03:40:24;4.90;;;3.30;;
72813;SDS011;60945;48.516;-2.768;2022-09-21T03:42:51;3.92;;;3.35;;
72813;SDS011;60945;48.516;-2.768;2022-09-21T03:45:17;4.95;;;3.13;;
72813;SDS011;60945;48.516;-2.768;2022-09-21T03:47:43;3.88;;;2.50;;
72813;SDS011;60945;48.516;-2.768;2022-09-21T03:50:09;5.05;;;3.00;;
72813;SDS011;60945;48.516;-2.768;2022-09-21T03:52:36;4.57;;;3.28;;
72813;SDS011;60945;48.516;-2.768;2022-09-21T03:55:03;5.70;;;3.08;;
72813;SDS011;60945;48.516;-2.768;2022-09-21T03:57:33;4.50;;;3.17;;
72813;SDS011;60945;48.516;-2.768;2022-09-21T04:00:00;4.15;;;3.03;;
72813;SDS011;60945;48.516;-2.768;2022-09-21T04:02:28;5.82;;;3.75;;
72813;SDS011;60945;48.516;-2.768;2022-09-21T04:04:54;4.68;;;3.30;;
72813;SDS011;60945;48.516;-2.768;2022-09-21T04:07:19;6.22;;;3.53;;
72813;SDS011;60945;48.516;-2.768;2022-09-21T04:09:45;3.88;;;3.05;;
72813;SDS011;60945;48.516;-2.768;2022-09-21T04:12:11;5.80;;;3.40;;
72813;SDS011;60945;48.516;-2.768;2022-09-21T04:14:37;5.35;;;3.75;;
72813;SDS011;60945;48.516;-2.768;2022-09-21T04:17:02;5.50;;;3.45;;
72813;SDS011;60945;48.516;-2.768;2022-09-21T04:19:28;4.43;;;3.22;;
72813;SDS011;60945;48.516;-2.768;2022-09-21T04:21:54;4.18;;;3.70;;
72813;SDS011;60945;48.516;-2.768;2022-09-21T04:24:20;7.38;;;6.78;;
72813;SDS011;60945;48.516;-2.768;2022-09-21T04:26:46;9.98;;;9.38;;
72813;SDS011;60945;48.516;-2.768;2022-09-21T04:29:12;4.57;;;3.50;;
72813;SDS011;60945;48.516;-2.768;2022-09-21T04:31:39;6.13;;;3.70;;
72813;SDS011;60945;48.516;-2.768;2022-09-21T04:34:05;4.85;;;3.50;;
72813;SDS011;60945;48.516;-2.768;2022-09-21T04:36:33;7.13;;;3.92;;
72813;SDS011;60945;48.516;-2.768;2022-09-21T04:39:02;6.95;;;3.75;;
72813;SDS011;60945;48.516;-2.768;2022-09-21T04:41:28;5.00;;;3.60;;
72813;SDS011;60945;48.516;-2.768;2022-09-21T04:43:54;5.80;;;3.88;;
72813;SDS011;60945;48.516;-2.768;2022-09-21T04:46:20;5.72;;;3.63;;
72813;SDS011;60945;48.516;-2.768;2022-09-21T04:48:46;6.15;;;5.47;;
72813;SDS011;60945;48.516;-2.768;2022-09-21T04:51:13;5.47;;;4.15;;
72813;SDS011;60945;48.516;-2.768;2022-09-21T04:53:41;5.10;;;3.85;;
72813;SDS011;60945;48.516;-2.768;2022-09-21T04:56:09;5.85;;;3.45;;
72813;SDS011;60945;48.516;-2.768;2022-09-21T04:58:37;4.63;;;3.40;;
72813;SDS011;60945;48.516;-2.768;2022-09-21T05:01:02;5.45;;;4.25;;
72813;SDS011;60945;48.516;-2.768;2022-09-21T05:03:30;4.68;;;3.45;;
72813;SDS011;60945;48.516;-2.768;2022-09-21T05:05:56;7.18;;;3.63;;
72813;SDS011;60945;48.516;-2.768;2022-09-21T05:08:22;7.22;;;3.67;;
72813;SDS011;60945;48.516;-2.768;2022-09-21T05:11:09;4.88;;;3.22;;
72813;SDS011;60945;48.516;-2.768;2022-09-21T05:13:39;5.72;;;4.65;;
72813;SDS011;60945;48.516;-2.768;2022-09-21T05:16:05;6.15;;;4.28;;
72813;SDS011;60945;48.516;-2.768;2022-09-21T05:18:31;6.38;;;4.55;;
72813;SDS011;60945;48.516;-2.768;2022-09-21T05:20:58;6.45;;;4.45;;
72813;SDS011;60945;48.516;-2.768;2022-09-21T05:23:25;8.40;;;4.38;;
72813;SDS011;60945;48.516;-2.768;2022-09-21T05:25:53;5.38;;;4.20;;
72813;SDS011;60945;48.516;-2.768;2022-09-21T05:28:19;7.07;;;4.80;;
72813;SDS011;60945;48.516;-2.768;2022-09-21T05:31:34;5.78;;;4.63;;
72813;SDS011;60945;48.516;-2.768;2022-09-21T05:33:31;6.32;;;5.72;;
72813;SDS011;60945;48.516;-2.768;2022-09-21T05:36:05;7.15;;;4.50;;
72813;SDS011;60945;48.516;-2.768;2022-09-21T05:38:35;7.53;;;4.57;;
72813;SDS011;60945;48.516;-2.768;2022-09-21T05:41:01;6.95;;;4.50;;
72813;SDS011;60945;48.516;-2.768;2022-09-21T05:43:26;11.38;;;10.43;;
72813;SDS011;60945;48.516;-2.768;2022-09-21T05:45:57;5.70;;;4.38;;
72813;SDS011;60945;48.516;-2.768;2022-09-21T05:48:39;8.23;;;4.53;;
72813;SDS011;60945;48.516;-2.768;2022-09-21T05:51:34;5.50;;;4.00;;
72813;SDS011;60945;48.516;-2.768;2022-09-21T05:54:17;6.53;;;4.32;;
72813;SDS011;60945;48.516;-2.768;2022-09-21T05:57:07;5.10;;;3.90;;
72813;SDS011;60945;48.516;-2.768;2022-09-21T06:05:14;7.38;;;5.88;;
72813;SDS011;60945;48.516;-2.768;2022-09-21T06:07:40;7.85;;;4.57;;
72813;SDS011;60945;48.516;-2.768;2022-09-21T06:10:07;7.50;;;4.97;;
72813;SDS011;60945;48.516;-2.768;2022-09-21T06:12:33;8.75;;;4.32;;
72813;SDS011;60945;48.516;-2.768;2022-09-21T06:14:59;18.85;;;17.85;;
72813;SDS011;60945;48.516;-2.768;2022-09-21T06:17:25;10.25;;;9.35;;
72813;SDS011;60945;48.516;-2.768;2022-09-21T06:19:51;6.85;;;6.03;;
72813;SDS011;60945;48.516;-2.768;2022-09-21T06:22:17;8.27;;;5.07;;
72813;SDS011;60945;48.516;-2.768;2022-09-21T06:24:46;12.13;;;5.88;;
72813;SDS011;60945;48.516;-2.768;2022-09-21T06:27:12;9.65;;;5.25;;
72813;SDS011;60945;48.516;-2.768;2022-09-21T06:29:37;9.50;;;7.28;;
72813;SDS011;60945;48.516;-2.768;2022-09-21T06:32:03;10.13;;;7.13;;
72813;SDS011;60945;48.516;-2.768;2022-09-21T06:34:29;14.35;;;8.20;;
72813;SDS011;60945;48.516;-2.768;2022-09-21T06:36:55;13.05;;;6.45;;
72813;SDS011;60945;48.516;-2.768;2022-09-21T06:39:21;14.23;;;6.20;;
72813;SDS011;60945;48.516;-2.768;2022-09-21T06:41:47;14.32;;;5.90;;
72813;SDS011;60945;48.516;-2.768;2022-09-21T06:44:12;12.35;;;5.32;;
72813;SDS011;60945;48.516;-2.768;2022-09-21T06:46:38;17.48;;;7.40;;
72813;SDS011;60945;48.516;-2.768;2022-09-21T06:49:04;9.00;;;5.88;;
72813;SDS011;60945;48.516;-2.768;2022-09-21T06:51:29;14.18;;;6.63;;
72813;SDS011;60945;48.516;-2.768;2022-09-21T06:53:56;15.60;;;7.13;;
72813;SDS011;60945;48.516;-2.768;2022-09-21T06:56:22;9.57;;;5.97;;
72813;SDS011;60945;48.516;-2.768;2022-09-21T06:58:48;12.60;;;5.70;;
72813;SDS011;60945;48.516;-2.768;2022-09-21T07:01:14;12.38;;;5.13;;
72813;SDS011;60945;48.516;-2.768;2022-09-21T07:03:41;7.10;;;4.45;;
72813;SDS011;60945;48.516;-2.768;2022-09-21T07:06:07;7.68;;;4.70;;
72813;SDS011;60945;48.516;-2.768;2022-09-21T07:08:39;10.90;;;4.60;;
72813;SDS011;60945;48.516;-2.768;2022-09-21T07:11:06;8.32;;;4.60;;
72813;SDS011;60945;48.516;-2.768;2022-09-21T07:13:32;11.05;;;5.13;;
72813;SDS011;60945;48.516;-2.768;2022-09-21T07:15:57;8.38;;;4.63;;
72813;SDS011;60945;48.516;-2.768;2022-09-21T07:18:28;6.78;;;4.40;;
72813;SDS011;60945;48.516;-2.768;2022-09-21T07:20:54;11.48;;;5.00;;
72813;SDS011;60945;48.516;-2.768;2022-09-21T07:23:19;9.93;;;4.70;;
72813;SDS011;60945;48.516;-2.768;2022-09-21T07:25:46;10.23;;;5.10;;
72813;SDS011;60945;48.516;-2.768;2022-09-21T07:28:14;11.07;;;4.95;;
72813;SDS011;60945;48.516;-2.768;2022-09-21T07:30:40;6.97;;;4.30;;
72813;SDS011;60945;48.516;-2.768;2022-09-21T07:33:06;12.30;;;7.40;;
72813;SDS011;60945;48.516;-2.768;2022-09-21T07:35:32;8.35;;;4.97;;
72813;SDS011;60945;48.516;-2.768;2022-09-21T07:38:02;9.82;;;4.72;;
72813;SDS011;60945;48.516;-2.768;2022-09-21T07:40:30;9.43;;;5.05;;
72813;SDS011;60945;48.516;-2.768;2022-09-21T07:42:56;13.02;;;4.95;;
72813;SDS011;60945;48.516;-2.768;2022-09-21T07:45:23;9.77;;;4.50;;
72813;SDS011;60945;48.516;-2.768;2022-09-21T07:47:49;14.60;;;4.65;;
72813;SDS011;60945;48.516;-2.768;2022-09-21T07:50:18;10.85;;;4.63;;
72813;SDS011;60945;48.516;-2.768;2022-09-21T07:52:44;8.05;;;3.47;;
72813;SDS011;60945;48.516;-2.768;2022-09-21T07:55:10;8.45;;;4.63;;
72813;SDS011;60945;48.516;-2.768;2022-09-21T07:57:35;7.38;;;3.38;;
72813;SDS011;60945;48.516;-2.768;2022-09-21T08:00:20;8.77;;;3.58;;
72813;SDS011;60945;48.516;-2.768;2022-09-21T08:02:46;11.63;;;3.83;;
72813;SDS011;60945;48.516;-2.768;2022-09-21T08:05:14;16.88;;;5.90;;
72813;SDS011;60945;48.516;-2.768;2022-09-21T08:07:40;9.82;;;3.47;;
72813;SDS011;60945;48.516;-2.768;2022-09-21T08:10:06;5.05;;;3.45;;
72813;SDS011;60945;48.516;-2.768;2022-09-21T08:12:32;8.30;;;3.20;;
72813;SDS011;60945;48.516;-2.768;2022-09-21T08:14:58;7.68;;;3.40;;
72813;SDS011;60945;48.516;-2.768;2022-09-21T08:17:23;6.28;;;3.63;;
72813;SDS011;60945;48.516;-2.768;2022-09-21T08:19:49;26.73;;;5.78;;
72813;SDS011;60945;48.516;-2.768;2022-09-21T08:22:14;15.98;;;4.75;;
72813;SDS011;60945;48.516;-2.768;2022-09-21T08:24:40;9.43;;;4.38;;
72813;SDS011;60945;48.516;-2.768;2022-09-21T08:27:08;9.98;;;4.10;;
72813;SDS011;60945;48.516;-2.768;2022-09-21T08:29:35;9.05;;;3.72;;
72813;SDS011;60945;48.516;-2.768;2022-09-21T08:32:00;7.97;;;3.72;;
72813;SDS011;60945;48.516;-2.768;2022-09-21T08:34:27;7.43;;;4.15;;
72813;SDS011;60945;48.516;-2.768;2022-09-21T08:36:52;16.20;;;4.50;;
72813;SDS011;60945;48.516;-2.768;2022-09-21T08:39:18;21.73;;;5.30;;
72813;SDS011;60945;48.516;-2.768;2022-09-21T08:44:16;7.30;;;4.45;;
72813;SDS011;60945;48.516;-2.768;2022-09-21T08:46:51;13.20;;;4.97;;
72813;SDS011;60945;48.516;-2.768;2022-09-21T08:49:25;7.53;;;4.47;;
72813;SDS011;60945;48.516;-2.768;2022-09-21T08:51:53;10.18;;;6.88;;
72813;SDS011;60945;48.516;-2.768;2022-09-21T08:54:25;13.88;;;4.00;;
72813;SDS011;60945;48.516;-2.768;2022-09-21T08:56:54;9.15;;;4.63;;
72813;SDS011;60945;48.516;-2.768;2022-09-21T08:59:20;11.15;;;4.55;;
72813;SDS011;60945;48.516;-2.768;2022-09-21T09:02:03;10.68;;;4.18;;
72813;SDS011;60945;48.516;-2.768;2022-09-21T09:04:50;5.85;;;4.47;;
72813;SDS011;60945;48.516;-2.768;2022-09-21T09:13:45;5.50;;;3.85;;
72813;SDS011;60945;48.516;-2.768;2022-09-21T09:21:12;7.45;;;4.00;;
72813;SDS011;60945;48.516;-2.768;2022-09-21T09:23:56;4.70;;;3.40;;
72813;SDS011;60945;48.516;-2.768;2022-09-21T09:26:37;5.80;;;3.47;;
72813;SDS011;60945;48.516;-2.768;2022-09-21T09:32:12;4.82;;;3.28;;
72813;SDS011;60945;48.516;-2.768;2022-09-21T09:34:54;7.65;;;3.30;;
72813;SDS011;60945;48.516;-2.768;2022-09-21T09:37:44;7.15;;;3.38;;
72813;SDS011;60945;48.516;-2.768;2022-09-21T09:40:11;4.70;;;3.38;;
72813;SDS011;60945;48.516;-2.768;2022-09-21T09:45:23;7.63;;;5.78;;
72813;SDS011;60945;48.516;-2.768;2022-09-21T09:50:45;5.85;;;3.70;;
72813;SDS011;60945;48.516;-2.768;2022-09-21T09:53:21;7.97;;;3.30;;
72813;SDS011;60945;48.516;-2.768;2022-09-21T09:55:51;7.05;;;3.50;;
72813;SDS011;60945;48.516;-2.768;2022-09-21T09:58:22;10.45;;;3.78;;
72813;SDS011;60945;48.516;-2.768;2022-09-21T10:01:06;16.02;;;5.80;;
72813;SDS011;60945;48.516;-2.768;2022-09-21T10:03:32;9.68;;;4.95;;
72813;SDS011;60945;48.516;-2.768;2022-09-21T10:05:58;7.93;;;4.75;;
72813;SDS011;60945;48.516;-2.768;2022-09-21T10:11:12;5.18;;;3.92;;
72813;SDS011;60945;48.516;-2.768;2022-09-21T10:13:46;6.88;;;4.85;;
72813;SDS011;60945;48.516;-2.768;2022-09-21T10:23:51;6.30;;;4.78;;
72813;SDS011;60945;48.516;-2.768;2022-09-21T10:26:21;6.53;;;4.78;;
72813;SDS011;60945;48.516;-2.768;2022-09-21T10:28:57;4.95;;;3.78;;
72813;SDS011;60945;48.516;-2.768;2022-09-21T10:31:25;5.18;;;4.68;;
72813;SDS011;60945;48.516;-2.768;2022-09-21T10:36:27;6.03;;;4.22;;
72813;SDS011;60945;48.516;-2.768;2022-09-21T10:41:41;4.72;;;3.35;;
72813;SDS011;60945;48.516;-2.768;2022-09-21T10:44:19;6.90;;;4.32;;
72813;SDS011;60945;48.516;-2.768;2022-09-21T10:46:47;6.05;;;4.05;;
72813;SDS011;60945;48.516;-2.768;2022-09-21T10:49:15;5.53;;;4.22;;
72813;SDS011;60945;48.516;-2.768;2022-09-21T10:51:46;4.85;;;3.72;;
72813;SDS011;60945;48.516;-2.768;2022-09-21T10:54:18;5.32;;;4.25;;
72813;SDS011;60945;48.516;-2.768;2022-09-21T10:56:58;5.20;;;3.85;;
72813;SDS011;60945;48.516;-2.768;2022-09-21T10:59:32;5.88;;;3.90;;
72813;SDS011;60945;48.516;-2.768;2022-09-21T11:02:01;9.00;;;3.95;;
72813;SDS011;60945;48.516;-2.768;2022-09-21T11:04:48;6.47;;;3.35;;
72813;SDS011;60945;48.516;-2.768;2022-09-21T11:07:26;4.65;;;3.00;;
72813;SDS011;60945;48.516;-2.768;2022-09-21T11:12:30;8.32;;;3.53;;
72813;SDS011;60945;48.516;-2.768;2022-09-21T11:15:22;4.72;;;3.55;;
72813;SDS011;60945;48.516;-2.768;2022-09-21T11:20:58;13.95;;;3.97;;
72813;SDS011;60945;48.516;-2.768;2022-09-21T11:29:44;8.05;;;3.63;;
72813;SDS011;60945;48.516;-2.768;2022-09-21T11:37:34;7.63;;;3.85;;
72813;SDS011;60945;48.516;-2.768;2022-09-21T11:43:48;5.85;;;3.90;;
72813;SDS011;60945;48.516;-2.768;2022-09-21T11:45:59;7.78;;;4.32;;
72813;SDS011;60945;48.516;-2.768;2022-09-21T11:57:10;9.10;;;4.05;;
72813;SDS011;60945;48.516;-2.768;2022-09-21T11:59:51;6.57;;;4.25;;
72813;SDS011;60945;48.516;-2.768;2022-09-21T12:13:29;10.85;;;5.00;;
72813;SDS011;60945;48.516;-2.768;2022-09-21T12:21:20;7.22;;;5.30;;
72813;SDS011;60945;48.516;-2.768;2022-09-21T12:23:56;11.07;;;4.35;;
72813;SDS011;60945;48.516;-2.768;2022-09-21T12:26:39;6.22;;;4.28;;
72813;SDS011;60945;48.516;-2.768;2022-09-21T12:29:32;9.27;;;4.40;;
72813;SDS011;60945;48.516;-2.768;2022-09-21T12:32:08;7.57;;;5.20;;
72813;SDS011;60945;48.516;-2.768;2022-09-21T12:34:56;5.93;;;4.50;;
72813;SDS011;60945;48.516;-2.768;2022-09-21T12:37:39;7.70;;;4.13;;
72813;SDS011;60945;48.516;-2.768;2022-09-21T12:46:33;8.30;;;4.05;;
72813;SDS011;60945;48.516;-2.768;2022-09-21T12:48:43;6.55;;;4.43;;
72813;SDS011;60945;48.516;-2.768;2022-09-21T12:53:54;5.55;;;4.38;;
72813;SDS011;60945;48.516;-2.768;2022-09-21T13:07:36;8.25;;;4.63;;
72813;SDS011;60945;48.516;-2.768;2022-09-21T13:12:53;5.15;;;3.92;;
72813;SDS011;60945;48.516;-2.768;2022-09-21T13:18:01;7.38;;;3.40;;
72813;SDS011;60945;48.516;-2.768;2022-09-21T13:20:38;4.38;;;2.80;;
72813;SDS011;60945;48.516;-2.768;2022-09-21T13:23:05;4.07;;;2.60;;
72813;SDS011;60945;48.516;-2.768;2022-09-21T13:26:06;4.22;;;2.70;;
72813;SDS011;60945;48.516;-2.768;2022-09-21T13:36:43;3.95;;;3.08;;
72813;SDS011;60945;48.516;-2.768;2022-09-21T13:39:28;3.03;;;2.65;;
72813;SDS011;60945;48.516;-2.768;2022-09-21T13:41:54;4.07;;;3.30;;
72813;SDS011;60945;48.516;-2.768;2022-09-21T13:44:39;3.22;;;2.80;;
72813;SDS011;60945;48.516;-2.768;2022-09-21T13:47:06;3.55;;;3.15;;
72813;SDS011;60945;48.516;-2.768;2022-09-21T13:49:39;4.45;;;3.33;;
72813;SDS011;60945;48.516;-2.768;2022-09-21T13:57:46;6.63;;;3.33;;
72813;SDS011;60945;48.516;-2.768;2022-09-21T14:02:55;3.85;;;3.20;;
72813;SDS011;60945;48.516;-2.768;2022-09-21T14:05:30;4.93;;;3.63;;
72813;SDS011;60945;48.516;-2.768;2022-09-21T14:10:47;3.72;;;3.30;;
72813;SDS011;60945;48.516;-2.768;2022-09-21T14:13:27;4.03;;;2.90;;
72813;SDS011;60945;48.516;-2.768;2022-09-21T14:18:53;3.67;;;3.28;;
72813;SDS011;60945;48.516;-2.768;2022-09-21T14:21:20;3.60;;;3.28;;
72813;SDS011;60945;48.516;-2.768;2022-09-21T14:31:45;4.22;;;3.33;;
72813;SDS011;60945;48.516;-2.768;2022-09-21T14:34:14;4.18;;;3.30;;
72813;SDS011;60945;48.516;-2.768;2022-09-21T14:36:46;4.15;;;3.70;;
72813;SDS011;60945;48.516;-2.768;2022-09-21T14:39:16;2.92;;;2.67;;
72813;SDS011;60945;48.516;-2.768;2022-09-21T14:41:47;3.25;;;2.95;;
72813;SDS011;60945;48.516;-2.768;2022-09-21T14:44:19;3.97;;;3.03;;
72813;SDS011;60945;48.516;-2.768;2022-09-21T14:49:48;4.57;;;2.80;;
72813;SDS011;60945;48.516;-2.768;2022-09-21T15:00:24;2.45;;;1.63;;
72813;SDS011;60945;48.516;-2.768;2022-09-21T15:05:52;3.08;;;1.70;;
72813;SDS011;60945;48.516;-2.768;2022-09-21T15:11:55;2.50;;;1.70;;
72813;SDS011;60945;48.516;-2.768;2022-09-21T15:19:26;5.35;;;1.88;;
72813;SDS011;60945;48.516;-2.768;2022-09-21T15:22:09;2.70;;;1.70;;
72813;SDS011;60945;48.516;-2.768;2022-09-21T15:24:47;3.25;;;1.70;;
72813;SDS011;60945;48.516;-2.768;2022-09-21T15:27:15;4.20;;;1.90;;
72813;SDS011;60945;48.516;-2.768;2022-09-21T15:29:46;2.60;;;1.67;;
72813;SDS011;60945;48.516;-2.768;2022-09-21T15:32:16;3.00;;;1.83;;
72813;SDS011;60945;48.516;-2.768;2022-09-21T15:35:05;3.78;;;1.75;;
72813;SDS011;60945;48.516;-2.768;2022-09-21T15:37:40;2.88;;;1.40;;
72813;SDS011;60945;48.516;-2.768;2022-09-21T15:40:20;3.97;;;1.60;;
72813;SDS011;60945;48.516;-2.768;2022-09-21T15:43:02;4.65;;;1.52;;
72813;SDS011;60945;48.516;-2.768;2022-09-21T15:45:56;2.50;;;1.55;;
72813;SDS011;60945;48.516;-2.768;2022-09-21T15:48:31;2.45;;;1.52;;
72813;SDS011;60945;48.516;-2.768;2022-09-21T15:53:44;2.35;;;1.77;;
72813;SDS011;60945;48.516;-2.768;2022-09-21T15:56:23;3.50;;;1.90;;
72813;SDS011;60945;48.516;-2.768;2022-09-21T15:58:51;4.10;;;1.80;;
72813;SDS011;60945;48.516;-2.768;2022-09-21T16:01:36;3.80;;;1.53;;
72813;SDS011;60945;48.516;-2.768;2022-09-21T16:04:04;3.92;;;1.80;;
72813;SDS011;60945;48.516;-2.768;2022-09-21T16:06:35;4.82;;;1.75;;
72813;SDS011;60945;48.516;-2.768;2022-09-21T16:12:00;5.20;;;2.05;;
72813;SDS011;60945;48.516;-2.768;2022-09-21T16:15:05;3.40;;;1.70;;
72813;SDS011;60945;48.516;-2.768;2022-09-21T16:18:03;3.97;;;2.10;;
72813;SDS011;60945;48.516;-2.768;2022-09-21T16:20:44;2.88;;;1.60;;
72813;SDS011;60945;48.516;-2.768;2022-09-21T16:23:13;3.50;;;1.80;;
72813;SDS011;60945;48.516;-2.768;2022-09-21T16:30:52;3.88;;;2.10;;
72813;SDS011;60945;48.516;-2.768;2022-09-21T16:38:41;3.28;;;1.90;;
72813;SDS011;60945;48.516;-2.768;2022-09-21T16:41:07;3.42;;;2.20;;
72813;SDS011;60945;48.516;-2.768;2022-09-21T16:43:34;3.35;;;1.88;;
72813;SDS011;60945;48.516;-2.768;2022-09-21T16:46:07;4.53;;;1.67;;
72813;SDS011;60945;48.516;-2.768;2022-09-21T16:48:35;3.45;;;1.67;;
72813;SDS011;60945;48.516;-2.768;2022-09-21T16:51:01;3.30;;;1.90;;
72813;SDS011;60945;48.516;-2.768;2022-09-21T16:53:27;4.38;;;1.75;;
72813;SDS011;60945;48.516;-2.768;2022-09-21T16:55:53;3.08;;;1.70;;
72813;SDS011;60945;48.516;-2.768;2022-09-21T16:58:19;2.72;;;1.88;;
72813;SDS011;60945;48.516;-2.768;2022-09-21T17:00:47;2.97;;;2.00;;
72813;SDS011;60945;48.516;-2.768;2022-09-21T17:03:17;2.35;;;1.75;;
72813;SDS011;60945;48.516;-2.768;2022-09-21T17:05:43;3.83;;;1.80;;
72813;SDS011;60945;48.516;-2.768;2022-09-21T17:08:09;4.45;;;1.58;;
72813;SDS011;60945;48.516;-2.768;2022-09-21T17:10:36;4.70;;;2.05;;
72813;SDS011;60945;48.516;-2.768;2022-09-21T17:13:04;3.53;;;1.40;;
72813;SDS011;60945;48.516;-2.768;2022-09-21T17:15:32;2.20;;;1.45;;
72813;SDS011;60945;48.516;-2.768;2022-09-21T17:17:59;2.85;;;1.60;;
72813;SDS011;60945;48.516;-2.768;2022-09-21T17:20:33;4.53;;;1.70;;
72813;SDS011;60945;48.516;-2.768;2022-09-21T17:23:03;2.45;;;1.42;;
72813;SDS011;60945;48.516;-2.768;2022-09-21T17:25:30;3.47;;;1.52;;
72813;SDS011;60945;48.516;-2.768;2022-09-21T17:27:57;4.32;;;1.50;;
72813;SDS011;60945;48.516;-2.768;2022-09-21T17:30:23;2.65;;;1.60;;
72813;SDS011;60945;48.516;-2.768;2022-09-21T17:32:50;3.55;;;1.90;;
72813;SDS011;60945;48.516;-2.768;2022-09-21T17:38:05;4.85;;;1.83;;
72813;SDS011;60945;48.516;-2.768;2022-09-21T17:40:32;4.00;;;1.90;;
72813;SDS011;60945;48.516;-2.768;2022-09-21T17:43:11;4.03;;;1.75;;
72813;SDS011;60945;48.516;-2.768;2022-09-21T17:45:43;3.15;;;1.80;;
72813;SDS011;60945;48.516;-2.768;2022-09-21T17:48:18;2.80;;;1.70;;
72813;SDS011;60945;48.516;-2.768;2022-09-21T17:50:45;4.53;;;1.70;;
72813;SDS011;60945;48.516;-2.768;2022-09-21T17:53:12;3.53;;;1.90;;
72813;SDS011;60945;48.516;-2.768;2022-09-21T17:55:58;3.83;;;1.85;;
72813;SDS011;60945;48.516;-2.768;2022-09-21T18:01:34;4.30;;;2.05;;
72813;SDS011;60945;48.516;-2.768;2022-09-21T18:04:06;6.05;;;1.88;;
72813;SDS011;60945;48.516;-2.768;2022-09-21T18:06:35;3.80;;;1.88;;
72813;SDS011;60945;48.516;-2.768;2022-09-21T18:09:01;3.40;;;1.60;;
72813;SDS011;60945;48.516;-2.768;2022-09-21T18:17:09;3.67;;;1.67;;
72813;SDS011;60945;48.516;-2.768;2022-09-21T18:25:30;4.78;;;1.80;;
72813;SDS011;60945;48.516;-2.768;2022-09-21T18:28:16;3.17;;;1.38;;
72813;SDS011;60945;48.516;-2.768;2022-09-21T18:30:49;5.03;;;1.88;;
72813;SDS011;60945;48.516;-2.768;2022-09-21T18:36:30;4.60;;;1.80;;
72813;SDS011;60945;48.516;-2.768;2022-09-21T18:44:20;3.95;;;1.73;;
72813;SDS011;60945;48.516;-2.768;2022-09-21T18:47:17;2.60;;;1.60;;
72813;SDS011;60945;48.516;-2.768;2022-09-21T18:55:00;2.70;;;1.92;;
72813;SDS011;60945;48.516;-2.768;2022-09-21T18:57:26;4.07;;;1.92;;
72813;SDS011;60945;48.516;-2.768;2022-09-21T18:59:56;3.67;;;2.00;;
72813;SDS011;60945;48.516;-2.768;2022-09-21T19:02:23;3.63;;;1.73;;
72813;SDS011;60945;48.516;-2.768;2022-09-21T19:04:49;3.80;;;2.20;;
72813;SDS011;60945;48.516;-2.768;2022-09-21T19:07:35;4.15;;;2.20;;